sensor_id;sensor_type;location;lat;lon;timestamp;temperature;humidity
52387;DHT22;38317;53.084;6.960;2023-06-19T00:02:09;21.50;99.90
52387;DHT22;38317;53.084;6.960;2023-06-19T00:04:35;21.50;99.90
52387;DHT22;38317;53.084;6.960;2023-06-19T00:07:01;21.50;99.90
52387;DHT22;38317;53.084;6.960;2023-06-19T00:09:27;21.50;99.90
52387;DHT22;38317;53.084;6.960;2023-06-19T00:11:53;21.50;99.90
52387;DHT22;38317;53.084;6.960;2023-06-19T00:14:18;21.50;99.90
52387;DHT22;38317;53.084;6.960;2023-06-19T00:16:44;21.50;99.90
52387;DHT22;38317;53.084;6.960;2023-06-19T00:19:11;21.50;99.90
52387;DHT22;38317;53.084;6.960;2023-06-19T00:21:38;21.50;99.90
52387;DHT22;38317;53.084;6.960;2023-06-19T00:24:04;21.40;99.90
52387;DHT22;38317;53.084;6.960;2023-06-19T00:26:30;21.40;99.90
52387;DHT22;38317;53.084;6.960;2023-06-19T00:28:56;21.40;99.90
52387;DHT22;38317;53.084;6.960;2023-06-19T00:31:22;21.40;99.90
52387;DHT22;38317;53.084;6.960;2023-06-19T00:33:48;21.40;99.90
52387;DHT22;38317;53.084;6.960;2023-06-19T00:36:15;21.40;99.90
52387;DHT22;38317;53.084;6.960;2023-06-19T00:38:42;21.40;99.90
52387;DHT22;38317;53.084;6.960;2023-06-19T00:41:08;21.40;99.90
52387;DHT22;38317;53.084;6.960;2023-06-19T00:43:34;21.40;99.90
52387;DHT22;38317;53.084;6.960;2023-06-19T00:46:01;21.30;99.90
52387;DHT22;38317;53.084;6.960;2023-06-19T00:48:28;21.30;99.90
52387;DHT22;38317;53.084;6.960;2023-06-19T00:50:57;21.30;99.90
52387;DHT22;38317;53.084;6.960;2023-06-19T00:53:23;21.30;99.90
52387;DHT22;38317;53.084;6.960;2023-06-19T00:55:50;21.30;99.90
52387;DHT22;38317;53.084;6.960;2023-06-19T00:58:18;21.30;99.90
52387;DHT22;38317;53.084;6.960;2023-06-19T01:00:44;21.30;99.90
52387;DHT22;38317;53.084;6.960;2023-06-19T01:03:10;21.40;99.90
52387;DHT22;38317;53.084;6.960;2023-06-19T01:05:35;21.30;99.90
52387;DHT22;38317;53.084;6.960;2023-06-19T01:08:32;21.20;99.90
52387;DHT22;38317;53.084;6.960;2023-06-19T01:11:04;21.30;99.90
52387;DHT22;38317;53.084;6.960;2023-06-19T01:13:45;21.30;99.90
52387;DHT22;38317;53.084;6.960;2023-06-19T01:16:13;21.30;99.90
52387;DHT22;38317;53.084;6.960;2023-06-19T01:18:39;21.20;99.90
52387;DHT22;38317;53.084;6.960;2023-06-19T01:21:13;21.20;99.90
52387;DHT22;38317;53.084;6.960;2023-06-19T01:23:39;21.20;99.90
52387;DHT22;38317;53.084;6.960;2023-06-19T01:26:06;21.20;99.90
52387;DHT22;38317;53.084;6.960;2023-06-19T01:28:36;21.20;99.90
52387;DHT22;38317;53.084;6.960;2023-06-19T01:31:08;21.10;99.90
52387;DHT22;38317;53.084;6.960;2023-06-19T01:33:38;21.10;99.90
52387;DHT22;38317;53.084;6.960;2023-06-19T01:36:05;21.10;99.90
52387;DHT22;38317;53.084;6.960;2023-06-19T01:38:32;21.10;99.90
52387;DHT22;38317;53.084;6.960;2023-06-19T01:41:01;21.10;99.90
52387;DHT22;38317;53.084;6.960;2023-06-19T01:43:29;21.10;99.90
52387;DHT22;38317;53.084;6.960;2023-06-19T01:45:56;21.00;99.90
52387;DHT22;38317;53.084;6.960;2023-06-19T01:48:22;21.00;99.90
52387;DHT22;38317;53.084;6.960;2023-06-19T01:50:49;21.00;99.90
52387;DHT22;38317;53.084;6.960;2023-06-19T01:53:15;21.00;99.90
52387;DHT22;38317;53.084;6.960;2023-06-19T01:55:41;21.00;99.90
52387;DHT22;38317;53.084;6.960;2023-06-19T01:58:07;21.00;99.90
52387;DHT22;38317;53.084;6.960;2023-06-19T02:00:33;21.00;99.90
52387;DHT22;38317;53.084;6.960;2023-06-19T02:03:03;20.90;99.90
52387;DHT22;38317;53.084;6.960;2023-06-19T02:05:30;20.90;99.90
52387;DHT22;38317;53.084;6.960;2023-06-19T02:07:56;20.90;99.90
52387;DHT22;38317;53.084;6.960;2023-06-19T02:10:22;20.90;99.90
52387;DHT22;38317;53.084;6.960;2023-06-19T02:12:47;20.90;99.90
52387;DHT22;38317;53.084;6.960;2023-06-19T02:15:13;20.90;99.90
52387;DHT22;38317;53.084;6.960;2023-06-19T02:17:39;20.90;99.90
52387;DHT22;38317;53.084;6.960;2023-06-19T02:20:05;20.90;99.90
52387;DHT22;38317;53.084;6.960;2023-06-19T02:22:35;20.90;99.90
52387;DHT22;38317;53.084;6.960;2023-06-19T02:25:01;20.90;99.90
52387;DHT22;38317;53.084;6.960;2023-06-19T02:27:26;20.90;99.90
52387;DHT22;38317;53.084;6.960;2023-06-19T02:29:52;20.90;99.90
52387;DHT22;38317;53.084;6.960;2023-06-19T02:32:18;20.90;99.90
52387;DHT22;38317;53.084;6.960;2023-06-19T02:34:45;20.90;99.90
52387;DHT22;38317;53.084;6.960;2023-06-19T02:37:11;20.90;99.90
52387;DHT22;38317;53.084;6.960;2023-06-19T02:39:36;20.80;99.90
52387;DHT22;38317;53.084;6.960;2023-06-19T02:42:02;20.80;99.90
52387;DHT22;38317;53.084;6.960;2023-06-19T02:44:28;20.80;99.90
52387;DHT22;38317;53.084;6.960;2023-06-19T02:46:54;20.80;99.90
52387;DHT22;38317;53.084;6.960;2023-06-19T02:49:19;20.80;99.90
52387;DHT22;38317;53.084;6.960;2023-06-19T02:51:46;20.70;99.90
52387;DHT22;38317;53.084;6.960;2023-06-19T02:54:11;20.70;99.90
52387;DHT22;38317;53.084;6.960;2023-06-19T02:56:38;20.70;99.90
52387;DHT22;38317;53.084;6.960;2023-06-19T02:59:04;20.70;99.90
52387;DHT22;38317;53.084;6.960;2023-06-19T03:01:30;20.70;99.90
52387;DHT22;38317;53.084;6.960;2023-06-19T03:03:55;20.70;99.90
52387;DHT22;38317;53.084;6.960;2023-06-19T03:06:21;20.70;99.90
52387;DHT22;38317;53.084;6.960;2023-06-19T03:08:47;20.60;99.90
52387;DHT22;38317;53.084;6.960;2023-06-19T03:11:13;20.60;99.90
52387;DHT22;38317;53.084;6.960;2023-06-19T03:13:49;20.60;99.90
52387;DHT22;38317;53.084;6.960;2023-06-19T03:16:24;20.60;99.90
52387;DHT22;38317;53.084;6.960;2023-06-19T03:18:50;20.60;99.90
52387;DHT22;38317;53.084;6.960;2023-06-19T03:21:16;20.60;99.90
52387;DHT22;38317;53.084;6.960;2023-06-19T03:23:42;20.60;99.90
52387;DHT22;38317;53.084;6.960;2023-06-19T03:26:09;20.70;99.90
52387;DHT22;38317;53.084;6.960;2023-06-19T03:28:36;20.70;99.90
52387;DHT22;38317;53.084;6.960;2023-06-19T03:31:02;20.70;99.90
52387;DHT22;38317;53.084;6.960;2023-06-19T03:33:27;20.80;99.90
52387;DHT22;38317;53.084;6.960;2023-06-19T03:35:53;20.80;99.90
52387;DHT22;38317;53.084;6.960;2023-06-19T03:38:19;20.80;99.90
52387;DHT22;38317;53.084;6.960;2023-06-19T03:40:45;20.80;99.90
52387;DHT22;38317;53.084;6.960;2023-06-19T03:43:11;20.80;99.90
52387;DHT22;38317;53.084;6.960;2023-06-19T03:45:37;20.90;99.90
52387;DHT22;38317;53.084;6.960;2023-06-19T03:48:02;20.90;99.90
52387;DHT22;38317;53.084;6.960;2023-06-19T03:50:28;20.90;99.90
52387;DHT22;38317;53.084;6.960;2023-06-19T03:52:54;20.90;99.90
52387;DHT22;38317;53.084;6.960;2023-06-19T03:55:20;20.90;99.90
52387;DHT22;38317;53.084;6.960;2023-06-19T03:57:46;21.00;99.90
52387;DHT22;38317;53.084;6.960;2023-06-19T04:00:13;21.00;99.90
52387;DHT22;38317;53.084;6.960;2023-06-19T04:02:39;21.00;99.90
52387;DHT22;38317;53.084;6.960;2023-06-19T04:05:06;21.00;99.90
52387;DHT22;38317;53.084;6.960;2023-06-19T04:07:32;21.00;99.90
52387;DHT22;38317;53.084;6.960;2023-06-19T04:09:58;21.00;99.90
52387;DHT22;38317;53.084;6.960;2023-06-19T04:12:27;21.00;99.90
52387;DHT22;38317;53.084;6.960;2023-06-19T04:14:52;21.00;99.90
52387;DHT22;38317;53.084;6.960;2023-06-19T04:17:18;21.00;99.90
52387;DHT22;38317;53.084;6.960;2023-06-19T04:19:44;21.10;99.90
52387;DHT22;38317;53.084;6.960;2023-06-19T04:22:09;21.10;99.90
52387;DHT22;38317;53.084;6.960;2023-06-19T04:24:35;21.10;99.90
52387;DHT22;38317;53.084;6.960;2023-06-19T04:27:02;21.10;99.90
52387;DHT22;38317;53.084;6.960;2023-06-19T04:29:27;21.10;99.90
52387;DHT22;38317;53.084;6.960;2023-06-19T04:31:58;21.10;99.90
52387;DHT22;38317;53.084;6.960;2023-06-19T04:34:27;21.10;99.90
52387;DHT22;38317;53.084;6.960;2023-06-19T04:36:52;21.10;99.90
52387;DHT22;38317;53.084;6.960;2023-06-19T04:39:18;21.10;99.90
52387;DHT22;38317;53.084;6.960;2023-06-19T04:41:44;21.10;99.90
52387;DHT22;38317;53.084;6.960;2023-06-19T04:44:10;21.00;99.90
52387;DHT22;38317;53.084;6.960;2023-06-19T04:46:38;21.00;99.90
52387;DHT22;38317;53.084;6.960;2023-06-19T04:49:05;21.00;99.90
52387;DHT22;38317;53.084;6.960;2023-06-19T04:51:31;21.00;99.90
52387;DHT22;38317;53.084;6.960;2023-06-19T04:54:00;21.00;99.90
52387;DHT22;38317;53.084;6.960;2023-06-19T04:56:26;21.00;99.90
52387;DHT22;38317;53.084;6.960;2023-06-19T04:58:52;20.90;99.90
52387;DHT22;38317;53.084;6.960;2023-06-19T05:01:21;20.90;99.90
52387;DHT22;38317;53.084;6.960;2023-06-19T05:03:53;20.90;99.90
52387;DHT22;38317;53.084;6.960;2023-06-19T05:06:23;20.90;99.90
52387;DHT22;38317;53.084;6.960;2023-06-19T05:08:49;20.90;99.90
52387;DHT22;38317;53.084;6.960;2023-06-19T05:11:14;20.90;99.90
52387;DHT22;38317;53.084;6.960;2023-06-19T05:13:40;20.90;99.90
52387;DHT22;38317;53.084;6.960;2023-06-19T05:16:11;20.90;99.90
52387;DHT22;38317;53.084;6.960;2023-06-19T05:18:44;20.90;99.90
52387;DHT22;38317;53.084;6.960;2023-06-19T05:21:10;20.90;99.90
52387;DHT22;38317;53.084;6.960;2023-06-19T05:23:36;20.90;99.90
52387;DHT22;38317;53.084;6.960;2023-06-19T05:26:03;20.90;99.90
52387;DHT22;38317;53.084;6.960;2023-06-19T05:28:30;20.90;99.90
52387;DHT22;38317;53.084;6.960;2023-06-19T05:30:56;20.90;99.90
52387;DHT22;38317;53.084;6.960;2023-06-19T05:33:21;20.90;99.90
52387;DHT22;38317;53.084;6.960;2023-06-19T05:35:49;20.90;99.90
52387;DHT22;38317;53.084;6.960;2023-06-19T05:38:20;20.80;99.90
52387;DHT22;38317;53.084;6.960;2023-06-19T05:40:46;20.90;99.90
52387;DHT22;38317;53.084;6.960;2023-06-19T05:43:12;20.90;99.90
52387;DHT22;38317;53.084;6.960;2023-06-19T05:45:38;20.80;99.90
52387;DHT22;38317;53.084;6.960;2023-06-19T05:48:04;20.80;99.90
52387;DHT22;38317;53.084;6.960;2023-06-19T05:50:30;21.10;99.90
52387;DHT22;38317;53.084;6.960;2023-06-19T05:52:56;20.80;99.90
52387;DHT22;38317;53.084;6.960;2023-06-19T05:55:22;20.90;99.90
52387;DHT22;38317;53.084;6.960;2023-06-19T05:57:50;21.00;99.90
52387;DHT22;38317;53.084;6.960;2023-06-19T06:00:17;21.00;99.90
52387;DHT22;38317;53.084;6.960;2023-06-19T06:02:43;21.00;99.90
52387;DHT22;38317;53.084;6.960;2023-06-19T06:05:09;21.10;99.90
52387;DHT22;38317;53.084;6.960;2023-06-19T06:07:37;21.00;99.90
52387;DHT22;38317;53.084;6.960;2023-06-19T06:10:05;21.00;99.90
52387;DHT22;38317;53.084;6.960;2023-06-19T06:12:34;21.00;99.90
52387;DHT22;38317;53.084;6.960;2023-06-19T06:15:01;20.90;99.90
52387;DHT22;38317;53.084;6.960;2023-06-19T06:17:27;20.80;99.90
52387;DHT22;38317;53.084;6.960;2023-06-19T06:19:53;20.80;99.90
52387;DHT22;38317;53.084;6.960;2023-06-19T06:22:18;20.90;99.90
52387;DHT22;38317;53.084;6.960;2023-06-19T06:24:44;20.80;99.90
52387;DHT22;38317;53.084;6.960;2023-06-19T06:27:12;20.90;99.90
52387;DHT22;38317;53.084;6.960;2023-06-19T06:29:38;21.00;99.90
52387;DHT22;38317;53.084;6.960;2023-06-19T06:32:05;21.10;99.90
52387;DHT22;38317;53.084;6.960;2023-06-19T06:34:31;21.20;99.90
52387;DHT22;38317;53.084;6.960;2023-06-19T06:36:58;21.20;99.90
52387;DHT22;38317;53.084;6.960;2023-06-19T06:39:24;21.20;99.90
52387;DHT22;38317;53.084;6.960;2023-06-19T06:41:50;21.40;99.90
52387;DHT22;38317;53.084;6.960;2023-06-19T06:44:16;21.40;99.90
52387;DHT22;38317;53.084;6.960;2023-06-19T06:46:41;21.40;99.90
52387;DHT22;38317;53.084;6.960;2023-06-19T06:49:07;21.40;99.90
52387;DHT22;38317;53.084;6.960;2023-06-19T06:51:33;21.50;99.90
52387;DHT22;38317;53.084;6.960;2023-06-19T06:53:59;21.50;99.90
52387;DHT22;38317;53.084;6.960;2023-06-19T06:56:24;21.60;99.90
52387;DHT22;38317;53.084;6.960;2023-06-19T06:58:50;21.60;99.90
52387;DHT22;38317;53.084;6.960;2023-06-19T07:01:16;21.60;99.90
52387;DHT22;38317;53.084;6.960;2023-06-19T07:03:41;21.70;99.90
52387;DHT22;38317;53.084;6.960;2023-06-19T07:06:07;21.70;99.90
52387;DHT22;38317;53.084;6.960;2023-06-19T07:08:33;21.70;99.90
52387;DHT22;38317;53.084;6.960;2023-06-19T07:10:59;21.80;99.90
52387;DHT22;38317;53.084;6.960;2023-06-19T07:13:25;21.80;99.90
52387;DHT22;38317;53.084;6.960;2023-06-19T07:15:51;21.80;99.90
52387;DHT22;38317;53.084;6.960;2023-06-19T07:18:16;21.90;99.90
52387;DHT22;38317;53.084;6.960;2023-06-19T07:20:42;21.90;99.90
52387;DHT22;38317;53.084;6.960;2023-06-19T07:23:09;21.80;99.90
52387;DHT22;38317;53.084;6.960;2023-06-19T07:25:35;21.80;99.90
52387;DHT22;38317;53.084;6.960;2023-06-19T07:28:01;21.70;99.90
52387;DHT22;38317;53.084;6.960;2023-06-19T07:30:31;21.70;99.90
52387;DHT22;38317;53.084;6.960;2023-06-19T07:32:57;21.60;99.90
52387;DHT22;38317;53.084;6.960;2023-06-19T07:35:22;21.60;99.90
52387;DHT22;38317;53.084;6.960;2023-06-19T07:37:48;21.50;99.90
52387;DHT22;38317;53.084;6.960;2023-06-19T07:40:14;21.50;99.90
52387;DHT22;38317;53.084;6.960;2023-06-19T07:42:40;21.50;99.90
52387;DHT22;38317;53.084;6.960;2023-06-19T07:45:06;21.40;99.90
52387;DHT22;38317;53.084;6.960;2023-06-19T07:47:32;21.40;99.90
52387;DHT22;38317;53.084;6.960;2023-06-19T07:49:57;21.30;99.90
52387;DHT22;38317;53.084;6.960;2023-06-19T07:52:23;21.30;99.90
52387;DHT22;38317;53.084;6.960;2023-06-19T07:54:53;21.20;99.90
52387;DHT22;38317;53.084;6.960;2023-06-19T07:57:20;21.20;99.90
52387;DHT22;38317;53.084;6.960;2023-06-19T07:59:47;21.30;99.90
52387;DHT22;38317;53.084;6.960;2023-06-19T08:02:17;21.30;99.90
52387;DHT22;38317;53.084;6.960;2023-06-19T08:04:43;21.30;99.90
52387;DHT22;38317;53.084;6.960;2023-06-19T08:07:08;21.20;99.90
52387;DHT22;38317;53.084;6.960;2023-06-19T08:09:34;21.20;99.90
52387;DHT22;38317;53.084;6.960;2023-06-19T08:12:01;21.30;99.90
52387;DHT22;38317;53.084;6.960;2023-06-19T08:14:27;21.20;99.90
52387;DHT22;38317;53.084;6.960;2023-06-19T08:16:53;21.20;99.90
52387;DHT22;38317;53.084;6.960;2023-06-19T08:19:19;21.20;99.90
52387;DHT22;38317;53.084;6.960;2023-06-19T08:21:45;21.20;99.90
52387;DHT22;38317;53.084;6.960;2023-06-19T08:24:13;21.30;99.90
52387;DHT22;38317;53.084;6.960;2023-06-19T08:26:39;21.20;99.90
52387;DHT22;38317;53.084;6.960;2023-06-19T08:29:05;21.30;99.90
52387;DHT22;38317;53.084;6.960;2023-06-19T08:31:30;21.30;99.90
52387;DHT22;38317;53.084;6.960;2023-06-19T08:33:56;21.30;99.90
52387;DHT22;38317;53.084;6.960;2023-06-19T08:36:22;21.30;99.90
52387;DHT22;38317;53.084;6.960;2023-06-19T08:38:48;21.20;99.90
52387;DHT22;38317;53.084;6.960;2023-06-19T08:41:16;21.20;99.90
52387;DHT22;38317;53.084;6.960;2023-06-19T08:43:42;21.20;99.90
52387;DHT22;38317;53.084;6.960;2023-06-19T08:46:14;21.20;99.90
52387;DHT22;38317;53.084;6.960;2023-06-19T08:48:40;21.20;99.90
52387;DHT22;38317;53.084;6.960;2023-06-19T08:51:07;21.20;99.90
52387;DHT22;38317;53.084;6.960;2023-06-19T08:53:34;21.20;99.90
52387;DHT22;38317;53.084;6.960;2023-06-19T08:56:02;21.20;99.90
52387;DHT22;38317;53.084;6.960;2023-06-19T08:58:28;21.20;99.90
52387;DHT22;38317;53.084;6.960;2023-06-19T09:00:53;21.20;99.90
52387;DHT22;38317;53.084;6.960;2023-06-19T09:03:22;21.10;99.90
52387;DHT22;38317;53.084;6.960;2023-06-19T09:05:48;21.10;99.90
52387;DHT22;38317;53.084;6.960;2023-06-19T09:08:18;21.10;99.90
52387;DHT22;38317;53.084;6.960;2023-06-19T09:11:03;21.10;99.90
52387;DHT22;38317;53.084;6.960;2023-06-19T09:13:31;21.20;99.90
52387;DHT22;38317;53.084;6.960;2023-06-19T09:16:05;21.10;99.90
52387;DHT22;38317;53.084;6.960;2023-06-19T09:21:28;21.10;99.90
52387;DHT22;38317;53.084;6.960;2023-06-19T09:23:54;21.00;99.90
52387;DHT22;38317;53.084;6.960;2023-06-19T09:26:20;21.00;99.90
52387;DHT22;38317;53.084;6.960;2023-06-19T09:28:46;21.00;99.90
52387;DHT22;38317;53.084;6.960;2023-06-19T09:31:12;20.90;99.90
52387;DHT22;38317;53.084;6.960;2023-06-19T09:33:39;20.90;99.90
52387;DHT22;38317;53.084;6.960;2023-06-19T09:36:06;20.90;99.90
52387;DHT22;38317;53.084;6.960;2023-06-19T09:38:33;20.90;99.90
52387;DHT22;38317;53.084;6.960;2023-06-19T09:41:04;20.90;99.90
52387;DHT22;38317;53.084;6.960;2023-06-19T09:43:38;20.90;99.90
52387;DHT22;38317;53.084;6.960;2023-06-19T09:46:05;21.00;99.90
52387;DHT22;38317;53.084;6.960;2023-06-19T09:48:33;21.00;99.90
52387;DHT22;38317;53.084;6.960;2023-06-19T09:53:37;21.00;99.90
52387;DHT22;38317;53.084;6.960;2023-06-19T09:56:03;21.00;99.90
52387;DHT22;38317;53.084;6.960;2023-06-19T09:58:29;21.10;99.90
52387;DHT22;38317;53.084;6.960;2023-06-19T10:00:56;21.20;99.90
52387;DHT22;38317;53.084;6.960;2023-06-19T10:03:30;21.30;99.90
52387;DHT22;38317;53.084;6.960;2023-06-19T10:06:01;21.40;99.90
52387;DHT22;38317;53.084;6.960;2023-06-19T10:08:31;21.50;99.90
52387;DHT22;38317;53.084;6.960;2023-06-19T10:10:57;21.60;99.90
52387;DHT22;38317;53.084;6.960;2023-06-19T10:13:34;21.60;99.90
52387;DHT22;38317;53.084;6.960;2023-06-19T10:16:01;21.60;99.90
52387;DHT22;38317;53.084;6.960;2023-06-19T10:18:27;21.60;99.90
52387;DHT22;38317;53.084;6.960;2023-06-19T10:20:56;21.60;99.90
52387;DHT22;38317;53.084;6.960;2023-06-19T10:23:24;21.70;99.90
52387;DHT22;38317;53.084;6.960;2023-06-19T10:28:28;22.10;99.90
52387;DHT22;38317;53.084;6.960;2023-06-19T10:30:56;22.30;99.90
52387;DHT22;38317;53.084;6.960;2023-06-19T10:33:27;22.40;99.90
52387;DHT22;38317;53.084;6.960;2023-06-19T10:35:53;23.70;99.90
52387;DHT22;38317;53.084;6.960;2023-06-19T10:38:19;22.70;99.90
52387;DHT22;38317;53.084;6.960;2023-06-19T10:40:45;22.80;99.90
52387;DHT22;38317;53.084;6.960;2023-06-19T10:43:23;23.00;99.90
52387;DHT22;38317;53.084;6.960;2023-06-19T10:45:57;23.20;99.90
52387;DHT22;38317;53.084;6.960;2023-06-19T10:48:24;23.50;99.90
52387;DHT22;38317;53.084;6.960;2023-06-19T10:50:50;23.80;99.90
52387;DHT22;38317;53.084;6.960;2023-06-19T10:53:46;24.00;99.90
52387;DHT22;38317;53.084;6.960;2023-06-19T10:56:11;23.80;99.90
52387;DHT22;38317;53.084;6.960;2023-06-19T10:58:37;23.70;99.90
52387;DHT22;38317;53.084;6.960;2023-06-19T11:01:03;23.80;99.90
52387;DHT22;38317;53.084;6.960;2023-06-19T11:03:29;23.70;99.90
52387;DHT22;38317;53.084;6.960;2023-06-19T11:05:57;23.70;99.90
52387;DHT22;38317;53.084;6.960;2023-06-19T11:08:23;23.80;99.90
52387;DHT22;38317;53.084;6.960;2023-06-19T11:10:52;23.70;99.90
52387;DHT22;38317;53.084;6.960;2023-06-19T11:13:20;23.70;99.90
52387;DHT22;38317;53.084;6.960;2023-06-19T11:15:47;23.80;99.90
52387;DHT22;38317;53.084;6.960;2023-06-19T11:18:15;24.00;99.90
52387;DHT22;38317;53.084;6.960;2023-06-19T11:20:46;24.20;99.90
52387;DHT22;38317;53.084;6.960;2023-06-19T11:23:13;24.20;99.90
52387;DHT22;38317;53.084;6.960;2023-06-19T11:25:40;24.20;99.90
52387;DHT22;38317;53.084;6.960;2023-06-19T11:28:14;24.20;99.90
52387;DHT22;38317;53.084;6.960;2023-06-19T11:30:41;24.20;99.90
52387;DHT22;38317;53.084;6.960;2023-06-19T11:33:17;24.00;99.90
52387;DHT22;38317;53.084;6.960;2023-06-19T11:35:51;24.00;99.90
52387;DHT22;38317;53.084;6.960;2023-06-19T11:38:23;24.00;99.90
52387;DHT22;38317;53.084;6.960;2023-06-19T11:40:49;24.00;99.90
52387;DHT22;38317;53.084;6.960;2023-06-19T11:43:28;24.00;99.90
52387;DHT22;38317;53.084;6.960;2023-06-19T11:46:03;23.90;99.90
52387;DHT22;38317;53.084;6.960;2023-06-19T11:48:28;23.90;99.90
52387;DHT22;38317;53.084;6.960;2023-06-19T11:50:54;24.00;99.90
52387;DHT22;38317;53.084;6.960;2023-06-19T11:53:21;24.10;99.90
52387;DHT22;38317;53.084;6.960;2023-06-19T11:55:47;24.20;99.90
52387;DHT22;38317;53.084;6.960;2023-06-19T11:58:14;24.30;99.90
52387;DHT22;38317;53.084;6.960;2023-06-19T12:00:43;24.20;99.90
52387;DHT22;38317;53.084;6.960;2023-06-19T12:03:09;24.40;99.90
52387;DHT22;38317;53.084;6.960;2023-06-19T12:05:36;24.50;99.90
52387;DHT22;38317;53.084;6.960;2023-06-19T12:08:02;24.60;99.90
52387;DHT22;38317;53.084;6.960;2023-06-19T12:10:30;24.60;99.90
52387;DHT22;38317;53.084;6.960;2023-06-19T12:12:56;24.80;99.90
52387;DHT22;38317;53.084;6.960;2023-06-19T12:15:22;24.90;99.90
52387;DHT22;38317;53.084;6.960;2023-06-19T12:17:48;25.00;99.90
52387;DHT22;38317;53.084;6.960;2023-06-19T12:20:13;24.80;99.90
52387;DHT22;38317;53.084;6.960;2023-06-19T12:22:40;24.80;99.90
52387;DHT22;38317;53.084;6.960;2023-06-19T12:25:06;24.80;99.90
52387;DHT22;38317;53.084;6.960;2023-06-19T12:27:31;24.90;99.90
52387;DHT22;38317;53.084;6.960;2023-06-19T12:29:57;25.00;99.90
52387;DHT22;38317;53.084;6.960;2023-06-19T12:32:23;25.00;99.90
52387;DHT22;38317;53.084;6.960;2023-06-19T12:34:49;25.30;99.90
52387;DHT22;38317;53.084;6.960;2023-06-19T12:37:20;25.40;99.90
52387;DHT22;38317;53.084;6.960;2023-06-19T12:39:47;25.20;99.90
52387;DHT22;38317;53.084;6.960;2023-06-19T12:42:13;25.10;99.90
52387;DHT22;38317;53.084;6.960;2023-06-19T12:44:42;25.10;99.90
52387;DHT22;38317;53.084;6.960;2023-06-19T12:47:09;24.90;99.90
52387;DHT22;38317;53.084;6.960;2023-06-19T12:49:35;24.80;99.90
52387;DHT22;38317;53.084;6.960;2023-06-19T12:52:01;24.60;99.90
52387;DHT22;38317;53.084;6.960;2023-06-19T12:54:27;24.60;99.90
52387;DHT22;38317;53.084;6.960;2023-06-19T12:56:53;24.50;99.90
52387;DHT22;38317;53.084;6.960;2023-06-19T12:59:19;24.60;99.90
52387;DHT22;38317;53.084;6.960;2023-06-19T13:01:45;24.50;99.90
52387;DHT22;38317;53.084;6.960;2023-06-19T13:04:12;24.60;99.90
52387;DHT22;38317;53.084;6.960;2023-06-19T13:06:38;24.60;99.90
52387;DHT22;38317;53.084;6.960;2023-06-19T13:09:05;24.80;99.90
52387;DHT22;38317;53.084;6.960;2023-06-19T13:11:32;25.10;99.90
52387;DHT22;38317;53.084;6.960;2023-06-19T13:14:02;25.20;99.90
52387;DHT22;38317;53.084;6.960;2023-06-19T13:16:30;25.50;99.90
52387;DHT22;38317;53.084;6.960;2023-06-19T13:18:56;25.70;99.90
52387;DHT22;38317;53.084;6.960;2023-06-19T13:21:22;25.80;99.90
52387;DHT22;38317;53.084;6.960;2023-06-19T13:23:48;25.70;99.90
52387;DHT22;38317;53.084;6.960;2023-06-19T13:26:14;25.40;99.90
52387;DHT22;38317;53.084;6.960;2023-06-19T13:28:40;25.40;99.90
52387;DHT22;38317;53.084;6.960;2023-06-19T13:31:06;25.40;99.90
52387;DHT22;38317;53.084;6.960;2023-06-19T13:33:31;25.20;99.90
52387;DHT22;38317;53.084;6.960;2023-06-19T13:35:57;25.30;99.90
52387;DHT22;38317;53.084;6.960;2023-06-19T13:38:23;25.30;99.90
52387;DHT22;38317;53.084;6.960;2023-06-19T13:40:48;25.30;99.90
52387;DHT22;38317;53.084;6.960;2023-06-19T13:43:15;25.30;99.90
52387;DHT22;38317;53.084;6.960;2023-06-19T13:45:42;25.20;99.90
52387;DHT22;38317;53.084;6.960;2023-06-19T13:48:08;25.50;99.90
52387;DHT22;38317;53.084;6.960;2023-06-19T13:50:34;25.20;99.90
52387;DHT22;38317;53.084;6.960;2023-06-19T13:53:00;25.10;99.90
52387;DHT22;38317;53.084;6.960;2023-06-19T13:55:26;25.20;99.90
52387;DHT22;38317;53.084;6.960;2023-06-19T13:57:52;25.50;99.90
52387;DHT22;38317;53.084;6.960;2023-06-19T14:00:18;25.50;99.90
52387;DHT22;38317;53.084;6.960;2023-06-19T14:02:44;25.60;99.90
52387;DHT22;38317;53.084;6.960;2023-06-19T14:05:09;25.60;99.90
52387;DHT22;38317;53.084;6.960;2023-06-19T14:07:36;25.70;99.90
52387;DHT22;38317;53.084;6.960;2023-06-19T14:10:03;25.90;99.90
52387;DHT22;38317;53.084;6.960;2023-06-19T14:12:29;26.10;99.90
52387;DHT22;38317;53.084;6.960;2023-06-19T14:14:56;26.00;99.90
52387;DHT22;38317;53.084;6.960;2023-06-19T14:17:22;26.00;99.90
52387;DHT22;38317;53.084;6.960;2023-06-19T14:19:48;25.90;99.90
52387;DHT22;38317;53.084;6.960;2023-06-19T14:22:14;25.70;99.90
52387;DHT22;38317;53.084;6.960;2023-06-19T14:24:40;25.70;99.90
52387;DHT22;38317;53.084;6.960;2023-06-19T14:27:06;25.70;99.90
52387;DHT22;38317;53.084;6.960;2023-06-19T14:29:34;25.80;99.90
52387;DHT22;38317;53.084;6.960;2023-06-19T14:32:00;26.00;99.90
52387;DHT22;38317;53.084;6.960;2023-06-19T14:34:26;26.00;99.90
52387;DHT22;38317;53.084;6.960;2023-06-19T14:36:51;26.10;99.90
52387;DHT22;38317;53.084;6.960;2023-06-19T14:39:17;26.10;99.90
52387;DHT22;38317;53.084;6.960;2023-06-19T14:41:43;25.90;99.90
52387;DHT22;38317;53.084;6.960;2023-06-19T14:44:09;25.70;99.90
52387;DHT22;38317;53.084;6.960;2023-06-19T14:46:34;25.70;99.90
52387;DHT22;38317;53.084;6.960;2023-06-19T14:49:11;25.80;99.90
52387;DHT22;38317;53.084;6.960;2023-06-19T14:51:41;25.80;99.90
52387;DHT22;38317;53.084;6.960;2023-06-19T14:54:07;25.80;99.90
52387;DHT22;38317;53.084;6.960;2023-06-19T14:56:33;25.80;99.90
52387;DHT22;38317;53.084;6.960;2023-06-19T14:58:58;25.90;99.90
52387;DHT22;38317;53.084;6.960;2023-06-19T15:01:25;26.10;99.90
52387;DHT22;38317;53.084;6.960;2023-06-19T15:03:51;26.20;99.90
52387;DHT22;38317;53.084;6.960;2023-06-19T15:06:17;26.20;99.90
52387;DHT22;38317;53.084;6.960;2023-06-19T15:08:42;26.20;99.90
52387;DHT22;38317;53.084;6.960;2023-06-19T15:11:08;26.10;99.90
52387;DHT22;38317;53.084;6.960;2023-06-19T15:13:34;26.20;99.90
52387;DHT22;38317;53.084;6.960;2023-06-19T15:15:59;26.30;99.90
52387;DHT22;38317;53.084;6.960;2023-06-19T15:18:26;26.20;99.90
52387;DHT22;38317;53.084;6.960;2023-06-19T15:20:52;26.20;99.90
52387;DHT22;38317;53.084;6.960;2023-06-19T15:23:18;26.20;99.90
52387;DHT22;38317;53.084;6.960;2023-06-19T15:25:44;26.30;99.90
52387;DHT22;38317;53.084;6.960;2023-06-19T15:28:10;26.40;99.90
52387;DHT22;38317;53.084;6.960;2023-06-19T15:30:36;26.40;99.90
52387;DHT22;38317;53.084;6.960;2023-06-19T15:33:02;26.50;99.90
52387;DHT22;38317;53.084;6.960;2023-06-19T15:35:28;26.50;99.90
52387;DHT22;38317;53.084;6.960;2023-06-19T15:37:54;26.50;99.90